• Join FlightAware (Why Join?)
  • Login
  • US Flag 
09:32PM EDT


 

Airport Tracker/Info


-or-


 

Live Flight TrackerFlight Track Log ✈ VIR901 ✈ 24-Apr-2013 ✈ RJAA / NRT - EGLL / LHR

Flight Track Log - Related Links

Times and Time Zones

All times are in EDT time to prevent confusion due to time zone crossing. See the VIR901 flight status page for this flight to view local times or setup timezone preferences in your user account.

Time Position Orientation Groundspeed Altitude Reporting Facility
EDT Latitude Longitude Course Direction KTS MPH feet Rate Location/Type
11:25PM 35.7250 140.4050 150° Southeast 160 184 1,500  Level FlightAware
11:26PM 35.7110 140.4150 150° Southeast 160 184 2,100 1,200 Climbing FlightAware
11:26PM 35.6920 140.4280 151° Southeast 179 206 2,500 1,200 Climbing FlightAware
11:27PM 35.6670 140.4450 151° Southeast 187 215 3,300 1,080 Climbing FlightAware
11:27PM 35.6460 140.4610 148° Southeast 213 245 3,600 960 Climbing FlightAware
11:28PM 35.6180 140.4810 150° Southeast 240 276 4,200 1,380 Climbing FlightAware
11:28PM 35.5910 140.5000 150° Southeast 244 281 5,000 1,800 Climbing FlightAware
11:29PM 35.5640 140.5130 159° South 239 275 5,900 2,040 Climbing FlightAware
11:29PM 35.5370 140.4910 214° Southwest 239 275 6,900 1,920 Climbing FlightAware
11:29PM 35.5350 140.4770 260° West 250 288 7,200 1,920 Climbing FlightAware
11:30PM 35.5440 140.4370 285° West 278 320 8,200 1,620 Climbing FlightAware
11:30PM 35.5510 140.4280 314° West 291 335 8,300 960 Climbing FlightAware
11:30PM 35.5760 140.4120 333° Northwest 316 364 8,700 1,320 Climbing FlightAware
11:31PM 35.6140 140.3870 332° Northwest 329 379 9,300 2,040 Climbing FlightAware
11:32PM 35.6700 140.3470 330° Northwest 320 368 11,100 1,620 Climbing FlightAware
11:32PM 35.7220 140.3070 328° Northwest 344 396 11,600 720 Climbing FlightAware
11:33PM 35.7740 140.2650 327° Northwest 362 417 12,000 1,020 Climbing FlightAware
11:33PM 35.8300 140.2190 326° Northwest 381 438 12,900 600 Climbing FlightAware
11:34PM 35.9160 140.1490 327° Northwest 369 425 13,000  Climbing FlightAware
11:35PM 35.9770 140.1000 327° Northwest 373 429 13,000  Level FlightAware
11:36PM 36.0380 140.0500 326° Northwest 377 434 13,000  Level FlightAware
11:37PM 36.1000 139.9990 326° Northwest 376 433 13,000 60 Level FlightAware
11:37PM 36.1560 139.9540 327° Northwest 378 435 13,100 1,080 Climbing FlightAware
11:38PM 36.2260 139.8970 327° Northwest 381 438 14,600 1,500 Climbing FlightAware
11:39PM 36.3070 139.8160 321° Northwest 375 432 15,800 1,260 Climbing FlightAware
11:40PM 36.3680 139.7310 312° West 388 447 17,000 1,380 Climbing FlightAware
11:40PM 36.4080 139.6940 323° Northwest 404 465 17,700 1,320 Climbing FlightAware
11:41PM 36.4890 139.6630 343° North 421 484 18,600 1,080 Climbing FlightAware
11:42PM 36.5760 139.6310 344° North 429 494 19,400 1,080 Climbing FlightAware
11:42PM 36.6540 139.6030 344° North 436 502 20,200 1,200 Climbing FlightAware
11:43PM 36.7310 139.5740 343° North 441 507 21,000 1,020 Climbing FlightAware
11:44PM 36.8100 139.5320 337° Northwest 435 501 21,700 960 Climbing FlightAware
11:45PM 36.8790 139.4850 331° Northwest 443 510 22,400 1,020 Climbing FlightAware
11:45PM 36.9500 139.4370 332° Northwest 445 512 23,100 1,020 Climbing FlightAware
11:46PM 37.0730 139.3530 331° Northwest 445 512 24,100 960 Climbing FlightAware
11:47PM 37.1460 139.3040 332° Northwest 456 525 24,700 900 Climbing FlightAware
11:48PM 37.2290 139.2470 331° Northwest 460 529 25,400 960 Climbing FlightAware
11:48PM 37.3140 139.1890 332° Northwest 457 526 26,200 1,080 Climbing FlightAware
11:49PM 37.3900 139.1370 331° Northwest 458 527 27,000 1,080 Climbing FlightAware
11:50PM 37.4540 139.0930 331° Northwest 460 529 27,600 1,260 Climbing FlightAware
11:50PM 37.5470 139.0290 331° Northwest 457 526 28,800 1,560 Climbing FlightAware
11:51PM 37.6250 138.9750 331° Northwest 458 527 30,000 1,500 Climbing FlightAware
11:52PM 37.7100 138.9170 332° Northwest 458 527 31,000 1,380 Climbing FlightAware
11:52PM 37.7730 138.8730 331° Northwest 445 512 31,900 720 Climbing FlightAware
11:53PM 37.8570 138.8140 331° Northwest 459 528 32,000 60 Climbing FlightAware
11:54PM 37.9420 138.7550 331° Northwest 458 527 32,000  Level FlightAware
11:55PM 38.0160 138.7040 332° Northwest 458 527 32,000  Level FlightAware
11:55PM 38.1030 138.6430 331° Northwest 463 533 32,000 60 Level FlightAware
11:56PM 38.1770 138.5910 331° Northwest 458 527 32,100 600 Climbing FlightAware
11:57PM 38.2500 138.5400 331° Northwest 464 534 32,800 1,080 Climbing FlightAware
11:57PM 38.3270 138.4860 331° Northwest 461 531 33,600 840 Climbing FlightAware
11:58PM 38.4090 138.4280 331° Northwest 460 529 34,000 240 Climbing FlightAware
11:59PM 38.4860 138.3740 331° Northwest 458 527 34,000  Level FlightAware
12:00AM 38.5690 138.3140 331° Northwest 460 529 34,000  Level FlightAware
12:00AM 38.6440 138.2610 331° Northwest 461 531 34,000  Level FlightAware
12:01AM 38.7270 138.2020 331° Northwest 460 529 34,000  Level FlightAware
12:02AM 38.8010 138.1490 331° Northwest 462 532 34,000  Level FlightAware
12:02AM 38.8760 138.0940 330° Northwest 463 533 34,000  Level FlightAware
12:03AM 38.9590 138.0350 331° Northwest 464 534 34,000  Level FlightAware
12:04AM 39.0370 137.9800 331° Northwest 469 540 34,000  Level FlightAware
12:04AM 39.1230 137.9550 347° North 511 588 34,000  Level FlightAware
12:05AM 39.1940 137.9640 North 520 598 34,000  Level FlightAware
12:06AM 39.3050 137.9710 North 516 594 34,000  Level FlightAware
12:06AM 39.4020 137.9760 North 516 594 34,000  Level FlightAware
12:07AM 39.4970 137.9820 North 516 594 34,000  Level FlightAware
12:08AM 39.6020 137.9880 North 518 596 34,000  Level FlightAware
12:08AM 39.6970 137.9940 North 512 589 34,000  Level FlightAware
12:09AM 39.7970 138.0000 North 511 588 34,000  Level FlightAware
12:10AM 39.9030 138.0070 North 512 589 34,000  Level FlightAware
12:10AM 39.9940 138.0120 North 514 592 34,000  Level FlightAware
12:11AM 40.0980 138.0190 North 515 593 34,000  Level FlightAware
12:12AM 40.2020 138.0250 North 516 594 34,000  Level FlightAware
12:13AM 40.3180 138.0320 North 517 595 34,000  Level FlightAware
12:14AM 40.4370 138.0400 North 518 596 34,000  Level FlightAware
12:14AM 40.5340 138.0460 North 517 595 34,000  Level FlightAware
12:15AM 40.6370 138.0520 North 515 593 34,000  Level FlightAware
12:16AM 40.7460 138.0590 North 517 595 34,000  Level FlightAware
12:16AM 40.8470 138.0650 North 517 595 34,000  Level FlightAware
12:17AM 40.9330 138.0710 North 517 595 34,000  Level FlightAware
12:18AM 41.0480 138.0780 North 516 594 34,000  Level FlightAware
12:18AM 41.1390 138.0840 North 516 594 34,000  Level FlightAware
12:19AM 41.2590 138.0920 North 530 610 34,000  Level FlightAware
12:20AM 41.3510 138.0970 North 534 615 34,000  Level FlightAware
12:21AM 41.4680 138.1050 North 529 609 34,000  Level FlightAware
12:21AM 41.5620 138.1110 North 527 606 34,000  Level FlightAware
12:23AM 41.7720 138.1250 North 527 606 34,000  Level FlightAware
12:23AM 41.8790 138.1320 North 527 606 34,000  Level FlightAware
12:24AM 41.9820 138.1380 North 532 612 34,000  Level FlightAware
12:25AM 42.0860 138.1450 North 531 611 34,000  Level FlightAware
12:25AM 42.1790 138.1510 North 532 612 34,000  Level FlightAware
12:26AM 42.2970 138.1590 North 531 611 34,000  Level FlightAware
12:27AM 42.3810 138.1650 North 531 611 34,000  Level FlightAware
12:27AM 42.4820 138.1710 North 531 611 34,000  Level FlightAware
12:28AM 42.5730 138.1770 North 531 611 34,000  Level FlightAware
12:29AM 42.7150 138.1860 North 531 611 34,000  Level FlightAware
12:30AM 42.7990 138.1900 North 531 611 34,000  Level FlightAware
12:31AM 42.9030 138.1950 North 531 611 34,000  Level FlightAware
12:31AM 42.9870 138.1990 North 531 611 34,000  Level FlightAware
12:32AM 43.0700 138.2030 North 531 611 34,000  Level FlightAware
12:33AM 43.1750 138.2080 North 531 611 34,000  Level FlightAware
12:33AM 43.3700 138.2310 North 531 611 34,000  Level FlightAware
12:34AM 43.4620 138.2360 North 531 611 34,000  Level FlightAware
12:35AM 43.5560 138.2440 North 532 612 34,000  Level FlightAware
12:35AM 43.6200 138.2460 North 527 606 34,000  Level FlightAware
12:36AM 43.6940 138.2420 358° North 530 610 34,000  Level FlightAware
12:36AM 43.7950 138.2350 357° North 531 611 34,000  Level FlightAware
12:37AM 43.8990 138.2270 357° North 531 611 34,000  Level FlightAware
12:38AM 43.9830 138.2210 357° North 531 611 34,000  Level FlightAware
12:38AM 44.0660 138.2150 357° North 531 611 34,000  Level FlightAware
12:39AM 44.1500 138.2090 357° North 531 611 34,000  Level FlightAware
12:40AM 44.2330 138.2030 357° North 531 611 34,000  Level FlightAware
12:41AM 44.3370 138.1950 357° North 531 611 34,000  Level FlightAware
12:41AM 44.4210 138.1890 357° North 531 611 34,000  Level FlightAware
12:42AM 44.5040 138.1830 357° North 531 611 34,000  Level FlightAware
12:43AM 44.5870 138.1770 357° North 531 611 34,000  Level FlightAware
12:43AM 44.6710 138.1710 357° North 531 611 34,000  Level FlightAware
12:44AM 44.7750 138.1630 357° North 531 611 34,000  Level FlightAware
12:45AM 44.8590 138.1570 357° North 531 611 34,000  Level FlightAware
12:45AM 44.9420 138.1510 357° North 531 611 34,000  Level FlightAware
12:48AM 45.1630 138.0049 335° Northwest  Level Estimated
12:49AM 45.2707 137.9332 335° Northwest  Level Estimated
12:50AM 45.3784 137.8613 335° Northwest  Level Estimated
12:51AM 45.4860 137.7891 335° Northwest  Level Estimated
12:52AM 45.5936 137.7166 335° Northwest  Level Estimated
12:53AM 45.7012 137.6438 335° Northwest  Level Estimated
12:53AM 46.2140 138.0890 335° Northwest 513 590 34,000  Level FlightAware
12:54AM 46.3260 138.0810 357° North 512 589 34,000  Level FlightAware
12:55AM 46.4070 138.0760 358° North 510 587 34,000  Level FlightAware
12:55AM 46.5080 138.0610 354° North 499 574 34,000  Level FlightAware
12:56AM 46.6040 138.0270 346° North 488 562 34,000  Level FlightAware
12:57AM 46.6940 137.9830 341° North 487 560 34,000  Level FlightAware
12:57AM 46.7900 137.9370 342° North 488 562 34,000  Level FlightAware
12:58AM 46.8730 137.8960 341° North 489 563 34,000  Level FlightAware
12:59AM 46.9670 137.8500 342° North 489 563 34,000  Level FlightAware
12:59AM 47.0440 137.8120 341° North 489 563 34,000  Level FlightAware
01:00AM 47.1460 137.7620 342° North 488 562 34,000  Level FlightAware
01:01AM 47.2330 137.7190 341° North 486 559 34,000  Level FlightAware
01:02AM 47.3200 137.6760 341° North 487 560 34,000  Level FlightAware
01:02AM 47.4290 137.6220 341° North 486 559 34,000  Level FlightAware
01:03AM 47.5180 137.5770 341° North 484 557 34,000  Level FlightAware
01:04AM 47.6080 137.5320 341° North 487 560 34,000  Level FlightAware
01:04AM 47.6880 137.4910 341° North 487 560 34,000  Level FlightAware
01:05AM 47.7750 137.4470 341° North 485 558 34,000  Level FlightAware
01:06AM 47.8760 137.3960 341° North 481 554 34,000  Level FlightAware
01:06AM 47.9490 137.3590 341° North 482 555 34,000  Level FlightAware
01:07AM 48.0530 137.3050 341° North 481 554 34,000  Level FlightAware
01:08AM 48.1370 137.2620 341° North 484 557 34,000  Level FlightAware
01:09AM 48.2220 137.2190 341° North 486 559 34,000  Level FlightAware
01:09AM 48.3010 137.1770 341° North 486 559 34,000  Level FlightAware
01:10AM 48.3890 137.1320 341° North 488 562 34,000  Level FlightAware
01:11AM 48.4870 137.0820 341° North 486 559 34,000  Level FlightAware
01:11AM 48.5610 137.0420 340° North 487 560 34,000  Level FlightAware
01:12AM 48.6670 136.9870 341° North 487 560 34,000  Level FlightAware
01:13AM 48.7570 136.9400 341° North 487 560 34,000  Level FlightAware
01:14AM 48.9130 136.8570 341° North 486 559 34,000  Level FlightAware
01:15AM 48.9830 136.8200 341° North 488 562 34,000  Level FlightAware
01:15AM 49.0870 136.7640 341° North 491 565 34,000  Level FlightAware
01:16AM 49.1810 136.7120 340° North 488 562 34,000  Level FlightAware
01:17AM 49.3270 136.6330 341° North 485 558 34,000  Level FlightAware
01:18AM 49.4120 136.5850 340° North 487 560 34,000  Level FlightAware
01:19AM 49.4900 136.5250 333° Northwest 476 548 34,000  Level FlightAware
01:19AM 49.5710 136.4520 330° Northwest 474 545 34,000  Level FlightAware
01:20AM 49.6530 136.3800 330° Northwest 471 542 34,000  Level FlightAware
01:21AM 49.7340 136.3010 328° Northwest 472 543 34,000  Level FlightAware
01:21AM 49.8140 136.2240 328° Northwest 476 548 34,000  Level FlightAware
01:22AM 49.8960 136.1450 328° Northwest 477 549 34,000  Level FlightAware
01:23AM 49.9980 136.0460 328° Northwest 477 549 34,000  Level FlightAware
01:24AM 50.0680 135.9790 328° Northwest 478 550 34,000  Level FlightAware
01:25AM 50.1640 135.8850 328° Northwest 478 550 34,000  Level FlightAware
01:25AM 50.2620 135.7890 328° Northwest 474 545 34,000  Level FlightAware
01:26AM 50.3230 135.7290 328° Northwest 473 544 34,000  Level FlightAware
01:27AM 50.4020 135.6510 328° Northwest 472 543 34,000  Level FlightAware
01:27AM 50.4940 135.5590 328° Northwest 476 548 34,000  Level FlightAware
01:28AM 50.5620 135.4920 328° Northwest 477 549 34,000  Level FlightAware
01:29AM 50.6440 135.4090 327° Northwest 476 548 34,000  Level FlightAware
01:30AM 50.7820 135.2710 328° Northwest 466 536 34,000  Level FlightAware
01:31AM 50.8460 135.2060 327° Northwest 467 537 34,000  Level FlightAware
01:31AM 50.9060 135.1450 327° Northwest 469 540 34,000  Level FlightAware
01:32AM 51.0070 135.0460 328° Northwest 471 542 34,000  Level FlightAware
01:33AM 51.0770 134.9770 328° Northwest 473 544 34,000  Level FlightAware
01:34AM 51.1660 134.8890 328° Northwest 476 548 34,000  Level FlightAware
01:34AM 51.2390 134.8160 328° Northwest 475 547 34,000  Level FlightAware
01:35AM 51.2970 134.7580 328° Northwest 470 541 34,000  Level FlightAware
01:36AM 51.4040 134.6500 328° Northwest 469 540 34,000  Level FlightAware
01:36AM 51.4770 134.5770 328° Northwest 468 539 34,000  Level FlightAware
01:37AM 51.5620 134.4910 328° Northwest 467 537 34,000  Level FlightAware
01:38AM 51.6390 134.4130 328° Northwest 468 539 34,000  Level FlightAware
01:39AM 51.7280 134.3230 328° Northwest 468 539 34,000  Level FlightAware
01:39AM 51.7880 134.2620 328° Northwest 470 541 34,000  Level FlightAware
01:40AM 51.8720 134.1740 327° Northwest 471 542 34,000  Level FlightAware
01:41AM 51.9340 134.1080 327° Northwest 471 542 34,000  Level FlightAware
01:41AM 51.9970 134.0430 328° Northwest 471 542 34,000  Level FlightAware
01:42AM 52.0590 133.9770 327° Northwest 471 542 34,000  Level FlightAware
01:43AM 52.1210 133.9120 327° Northwest 471 542 34,000  Level FlightAware
01:44AM 52.1990 133.8290 327° Northwest 471 542 34,000  Level FlightAware
01:44AM 52.2610 133.7640 327° Northwest 471 542 34,000  Level FlightAware
01:45AM 52.3230 133.6980 327° Northwest 471 542 34,000  Level FlightAware
01:46AM 52.3850 133.6310 327° Northwest 471 542 34,000  Level FlightAware
01:46AM 52.4470 133.5650 327° Northwest 471 542 34,000  Level FlightAware
01:47AM 52.5250 133.4820 327° Northwest 471 542 34,000  Level FlightAware
01:48AM 52.5870 133.4160 327° Northwest 471 542 34,000  Level FlightAware
01:48AM 52.6490 133.3500 327° Northwest 471 542 34,000  Level FlightAware
01:49AM 52.7110 133.2830 327° Northwest 471 542 34,000 -6,780 Level FlightAware
01:52AM 52.9591 133.0558 331° Northwest  Level Estimated
01:53AM 53.0631 132.9597 331° Northwest  Level Estimated
01:54AM 53.1670 132.8632 331° Northwest  Level Estimated
01:54AM 53.6210 133.1930 328° Northwest -1  Level FlightAware Direct Aircraft Datalink
01:55AM 53.2708 132.7662 331° Northwest  Level Estimated
01:56AM 53.3746 132.6687 331° Northwest  Level Estimated
01:57AM 53.4782 132.5707 331° Northwest  Level Estimated
01:58AM 53.5818 132.4723 331° Northwest  Level Estimated
01:59AM 53.6853 132.3733 330° Northwest  Level Estimated
02:00AM 53.7887 132.2739 330° Northwest  Level Estimated
02:01AM 53.8921 132.1740 330° Northwest  Level Estimated
02:02AM 53.9953 132.0736 330° Northwest  Level Estimated
02:03AM 54.0985 131.9727 330° Northwest  Level Estimated
02:04AM 54.2016 131.8713 330° Northwest  Level Estimated
02:05AM 54.3046 131.7693 330° Northwest  Level Estimated
02:06AM 54.4075 131.6669 330° Northwest  Level Estimated
02:07AM 54.5103 131.5640 330° Northwest  Level Estimated
02:08AM 54.6131 131.4605 330° Northwest  Level Estimated
02:09AM 54.7157 131.3565 330° Northwest  Level Estimated
02:10AM 54.8183 131.2520 330° Northwest  Level Estimated
02:11AM 54.9208 131.1470 330° Northwest  Level Estimated
02:12AM 55.0231 131.0414 329° Northwest  Level Estimated
02:13AM 55.1254 130.9353 329° Northwest  Level Estimated
02:14AM 55.2276 130.8286 329° Northwest  Level Estimated
02:15AM 55.3297 130.7214 329° Northwest  Level Estimated
02:16AM 55.4317 130.6136 329° Northwest  Level Estimated
02:17AM 55.5336 130.5053 329° Northwest  Level Estimated
02:18AM 55.6355 130.3964 329° Northwest  Level Estimated
02:19AM 55.7372 130.2869 329° Northwest  Level Estimated
02:20AM 55.8388 130.1769 329° Northwest  Level Estimated
02:21AM 55.9403 130.0663 329° Northwest  Level Estimated
02:22AM 56.0418 129.9551 329° Northwest  Level Estimated
02:23AM 56.1431 129.8433 328° Northwest  Level Estimated
02:24AM 56.2443 129.7310 328° Northwest  Level Estimated
02:24AM 56.7214 130.0107 331° Northwest  Level Estimated
02:26AM 56.9034 129.8046 328° Northwest  Level Estimated
02:27AM 57.0044 129.6893 328° Northwest  Level Estimated
02:28AM 57.1053 129.5733 328° Northwest  Level Estimated
02:29AM 57.2061 129.4567 328° Northwest  Level Estimated
02:30AM 57.3067 129.3395 328° Northwest  Level Estimated
02:31AM 57.4073 129.2216 328° Northwest  Level Estimated
02:32AM 57.5077 129.1030 328° Northwest  Level Estimated
02:33AM 57.6080 128.9839 328° Northwest  Level Estimated
02:34AM 57.7082 128.8640 327° Northwest  Level Estimated
02:35AM 57.8083 128.7435 327° Northwest  Level Estimated
02:36AM 57.9083 128.6223 327° Northwest  Level Estimated
02:37AM 58.0082 128.5005 327° Northwest  Level Estimated
02:38AM 58.1080 128.3779 327° Northwest  Level Estimated
02:39AM 58.2076 128.2547 327° Northwest  Level Estimated
02:40AM 58.3071 128.1308 327° Northwest  Level Estimated
02:41AM 58.4065 128.0061 327° Northwest  Level Estimated
02:42AM 58.5058 127.8808 327° Northwest  Level Estimated
02:43AM 58.6050 127.7548 327° Northwest  Level Estimated
02:44AM 58.7040 127.6281 326° Northwest  Level Estimated
02:45AM 58.8029 127.5006 326° Northwest  Level Estimated
02:46AM 58.9017 127.3724 326° Northwest  Level Estimated
02:47AM 59.0003 127.2434 326° Northwest  Level Estimated
02:48AM 59.0988 127.1138 326° Northwest  Level Estimated
02:49AM 59.1972 126.9833 326° Northwest  Level Estimated
02:50AM 59.2955 126.8522 326° Northwest  Level Estimated
02:51AM 59.3936 126.7202 326° Northwest  Level Estimated
02:52AM 59.4916 126.5875 326° Northwest  Level Estimated
02:53AM 59.5895 126.4540 325° Northwest  Level Estimated
02:54AM 59.6872 126.3198 325° Northwest  Level Estimated
02:55AM 59.7848 126.1848 325° Northwest  Level Estimated
02:56AM 59.8822 126.0489 325° Northwest  Level Estimated
02:57AM 59.9795 125.9123 325° Northwest  Level Estimated
02:58AM 60.0767 125.7749 325° Northwest  Level Estimated
02:59AM 60.1737 125.6366 325° Northwest  Level Estimated
03:00AM 60.2706 125.4976 325° Northwest  Level Estimated
03:01AM 60.3673 125.3577 324° Northwest  Level Estimated
03:02AM 60.4639 125.2170 324° Northwest  Level Estimated
03:03AM 60.5603 125.0754 324° Northwest  Level Estimated
03:04AM 60.6566 124.9330 324° Northwest  Level Estimated
03:05AM 60.7527 124.7897 324° Northwest  Level Estimated
03:06AM 60.8487 124.6456 324° Northwest  Level Estimated
03:07AM 60.9445 124.5006 324° Northwest  Level Estimated
03:08AM 61.0402 124.3548 324° Northwest  Level Estimated
03:09AM 61.1357 124.2080 323° Northwest  Level Estimated
03:10AM 61.2310 124.0604 323° Northwest  Level Estimated
03:11AM 61.3262 123.9119 323° Northwest  Level Estimated
03:12AM 61.4212 123.7624 323° Northwest  Level Estimated
03:13AM 61.5161 123.6121 323° Northwest  Level Estimated
03:14AM 61.6107 123.4608 323° Northwest  Level Estimated
03:15AM 61.7053 123.3086 323° Northwest  Level Estimated
03:16AM 61.7996 123.1555 323° Northwest  Level Estimated
03:17AM 61.8938 123.0014 322° Northwest  Level Estimated
03:18AM 61.9878 122.8464 322° Northwest  Level Estimated
03:19AM 62.0816 122.6905 322° Northwest  Level Estimated
03:20AM 62.1753 122.5335 322° Northwest  Level Estimated
03:21AM 62.2688 122.3756 322° Northwest  Level Estimated
03:22AM 62.3621 122.2167 322° Northwest  Level Estimated
03:23AM 62.4552 122.0568 322° Northwest  Level Estimated
03:24AM 62.5481 121.8959 321° Northwest  Level Estimated
03:25AM 62.6409 121.7340 321° Northwest  Level Estimated
03:26AM 62.7334 121.5711 321° Northwest  Level Estimated
03:27AM 62.8258 121.4072 321° Northwest  Level Estimated
03:28AM 62.9179 121.2422 321° Northwest  Level Estimated
03:29AM 63.0099 121.0762 321° Northwest  Level Estimated
03:30AM 63.1017 120.9091 321° Northwest  Level Estimated
03:31AM 63.1933 120.7410 320° Northwest  Level Estimated
03:32AM 63.2847 120.5719 320° Northwest  Level Estimated
03:33AM 63.3759 120.4016 320° Northwest  Level Estimated
03:34AM 63.4669 120.2303 320° Northwest  Level Estimated
03:35AM 63.5576 120.0578 320° Northwest  Level Estimated
03:36AM 63.6482 119.8843 320° Northwest  Level Estimated
03:37AM 63.7385 119.7097 319° Northwest  Level Estimated
03:38AM 63.8287 119.5339 319° Northwest  Level Estimated
03:39AM 63.9186 119.3570 319° Northwest  Level Estimated
03:40AM 64.0083 119.1790 319° Northwest  Level Estimated
03:41AM 64.0978 118.9998 319° Northwest  Level Estimated
03:42AM 64.1871 118.8195 319° Northwest  Level Estimated
03:43AM 64.2761 118.6380 319° Northwest  Level Estimated
03:44AM 64.3650 118.4554 318° Northwest  Level Estimated
03:45AM 64.4536 118.2715 318° Northwest  Level Estimated
03:46AM 64.5419 118.0865 318° Northwest  Level Estimated
03:47AM 64.6300 117.9003 318° Northwest  Level Estimated
03:48AM 64.7179 117.7128 318° Northwest  Level Estimated
03:49AM 64.8056 117.5242 318° Northwest  Level Estimated
03:50AM 64.8930 117.3343 317° Northwest  Level Estimated
03:51AM 64.9802 117.1431 317° Northwest  Level Estimated
03:52AM 65.0671 116.9508 317° Northwest  Level Estimated
03:53AM 65.1537 116.7571 317° Northwest  Level Estimated
03:54AM 65.2402 116.5622 317° Northwest  Level Estimated
03:55AM 65.3263 116.3660 316° Northwest  Level Estimated
03:56AM 65.4122 116.1686 316° Northwest  Level Estimated
03:57AM 65.4979 115.9698 316° Northwest  Level Estimated
03:58AM 65.5833 115.7697 316° Northwest  Level Estimated
03:59AM 65.6684 115.5683 316° Northwest  Level Estimated
04:00AM 65.7533 115.3656 316° Northwest  Level Estimated
04:01AM 65.8379 115.1616 315° West  Level Estimated
04:02AM 65.9222 114.9562 315° West  Level Estimated
04:03AM 66.0062 114.7494 315° West  Level Estimated
04:04AM 66.0900 114.5413 315° West  Level Estimated
04:05AM 66.1735 114.3318 315° West  Level Estimated
04:06AM 66.2567 114.1209 314° West  Level Estimated
04:07AM 66.3396 113.9087 314° West  Level Estimated
04:08AM 66.4222 113.6950 314° West  Level Estimated
04:09AM 66.5045 113.4799 314° West  Level Estimated
04:09AM 66.8860 109.8230 306° West -1  Level FlightAware Direct Aircraft Datalink
04:10AM 66.5865 113.2634 314° West  Level Estimated
04:11AM 66.6683 113.0455 313° West  Level Estimated
04:12AM 66.7497 112.8261 313° West  Level Estimated
04:13AM 66.8308 112.6052 313° West  Level Estimated
04:14AM 66.9116 112.3829 313° West  Level Estimated
04:15AM 66.9921 112.1591 313° West  Level Estimated
04:16AM 67.0722 111.9339 312° West  Level Estimated
04:17AM 67.1521 111.7071 312° West  Level Estimated
04:18AM 67.2290 111.4865 312° West  Level Estimated
04:19AM 67.3082 111.2568 312° West  Level Estimated
04:20AM 67.3871 111.0256 312° West  Level Estimated
04:21AM 67.4656 110.7928 311° West  Level Estimated
04:22AM 67.5439 110.5585 311° West  Level Estimated
04:23AM 67.6217 110.3226 311° West  Level Estimated
04:24AM 67.6993 110.0852 311° West  Level Estimated
04:25AM 67.7764 109.8462 311° West  Level Estimated
04:26AM 67.8533 109.6057 310° West  Level Estimated
04:27AM 67.9297 109.3635 310° West  Level Estimated
04:28AM 68.0059 109.1198 310° West  Level Estimated
04:29AM 68.0816 108.8744 310° West  Level Estimated
04:30AM 68.1570 108.6275 309° West  Level Estimated
04:31AM 68.2320 108.3789 309° West  Level Estimated
04:32AM 68.3067 108.1286 309° West  Level Estimated
04:33AM 68.3810 107.8768 309° West  Level Estimated
04:34AM 68.4548 107.6233 309° West  Level Estimated
04:35AM 68.5284 107.3681 308° West  Level Estimated
04:36AM 68.6015 107.1113 308° West  Level Estimated
04:37AM 68.6742 106.8528 308° West  Level Estimated
04:38AM 68.7465 106.5926 308° West  Level Estimated
04:39AM 68.8184 106.3307 307° West  Level Estimated
04:40AM 68.8899 106.0672 307° West  Level Estimated
04:41AM 68.9610 105.8019 307° West  Level Estimated
04:42AM 69.0317 105.5349 307° West  Level Estimated
04:43AM 69.1020 105.2662 306° West  Level Estimated
04:44AM 69.1718 104.9958 306° West  Level Estimated
04:44AM 69.3860 100.8392 311° West  Level Estimated
04:46AM 69.5099 100.2805 303° West  Level Estimated
04:47AM 69.5727 99.9914 302° West  Level Estimated
04:48AM 69.6351 99.7007 302° West  Level Estimated
04:49AM 69.6970 99.4083 301° West  Level Estimated
04:50AM 69.7583 99.1141 301° West  Level Estimated
04:51AM 69.8192 98.8183 301° West  Level Estimated
04:52AM 69.8796 98.5207 301° West  Level Estimated
04:53AM 69.9395 98.2215 300° West  Level Estimated
04:54AM 69.9989 97.9205 300° West  Level Estimated
04:55AM 70.0578 97.6178 300° West  Level Estimated
04:56AM 70.1161 97.3134 300° West  Level Estimated
04:57AM 70.1740 97.0073 299° West  Level Estimated
04:58AM 70.2313 96.6995 299° West  Level Estimated
04:59AM 70.2880 96.3900 299° West  Level Estimated
05:00AM 70.3443 96.0787 298° West  Level Estimated
05:01AM 70.4000 95.7658 298° West  Level Estimated
05:02AM 70.4552 95.4511 298° West  Level Estimated
05:03AM 70.5098 95.1348 297° West  Level Estimated
05:04AM 70.5639 94.8167 297° West  Level Estimated
05:05AM 70.6174 94.4969 297° West  Level Estimated
05:06AM 70.6703 94.1755 297° West  Level Estimated
05:07AM 70.7227 93.8524 296° West  Level Estimated
05:08AM 70.7745 93.5275 296° West  Level Estimated
05:09AM 70.8258 93.2010 296° West  Level Estimated
05:10AM 70.8764 92.8729 295° West  Level Estimated
05:11AM 70.9265 92.5430 295° West  Level Estimated
05:12AM 70.9760 92.2115 295° West  Level Estimated
05:13AM 71.0249 91.8784 294° West  Level Estimated
05:14AM 71.0732 91.5436 294° West  Level Estimated
05:15AM 71.1208 91.2071 294° West  Level Estimated
05:16AM 71.1679 90.8690 293° West  Level Estimated
05:17AM 71.2144 90.5293 293° West  Level Estimated
05:18AM 71.2602 90.1880 293° West  Level Estimated
05:19AM 71.3055 89.8451 293° West  Level Estimated
05:20AM 71.3501 89.5006 292° West  Level Estimated
05:21AM 71.3940 89.1545 292° West  Level Estimated
05:22AM 71.4374 88.8069 292° West  Level Estimated
05:23AM 71.4801 88.4576 291° West  Level Estimated
05:24AM 71.5221 88.1069 291° West  Level Estimated
05:25AM 71.5635 87.7546 291° West  Level Estimated
05:26AM 71.6043 87.4008 290° West  Level Estimated
05:27AM 71.6444 87.0455 290° West  Level Estimated
05:28AM 71.6838 86.6887 290° West  Level Estimated
05:29AM 71.7226 86.3304 289° West  Level Estimated
05:30AM 71.7607 85.9706 289° West  Level Estimated
05:31AM 71.7981 85.6095 289° West  Level Estimated
05:32AM 71.8348 85.2468 288° West  Level Estimated
05:33AM 71.8709 84.8828 288° West  Level Estimated
05:34AM 71.9063 84.5174 287° West  Level Estimated
05:35AM 71.9410 84.1507 287° West  Level Estimated
05:36AM 71.9750 83.7825 287° West  Level Estimated
05:37AM 72.0082 83.4131 286° West  Level Estimated
05:38AM 72.0408 83.0423 286° West  Level Estimated
05:39AM 72.0727 82.6703 286° West  Level Estimated
05:40AM 72.1039 82.2970 285° West  Level Estimated
05:41AM 72.1344 81.9224 285° West  Level Estimated
05:42AM 72.1641 81.5466 285° West  Level Estimated
05:43AM 72.1931 81.1696 284° West  Level Estimated
05:44AM 72.2214 80.7915 284° West  Level Estimated
05:45AM 72.2490 80.4121 284° West  Level Estimated
05:46AM 72.2758 80.0317 283° West  Level Estimated
05:47AM 72.3019 79.6501 283° West  Level Estimated
05:48AM 72.3273 79.2675 282° West  Level Estimated
05:49AM 72.3519 78.8839 282° West  Level Estimated
05:50AM 72.3758 78.4992 282° West  Level Estimated
05:51AM 72.3989 78.1135 281° West  Level Estimated
05:52AM 72.4213 77.7268 281° West  Level Estimated
05:53AM 72.4429 77.3392 281° West  Level Estimated
05:54AM 72.4638 76.9507 280° West  Level Estimated
05:55AM 72.4839 76.5614 280° West  Level Estimated
05:56AM 72.5033 76.1711 280° West  Level Estimated
05:57AM 72.5219 75.7801 279° West  Level Estimated
05:58AM 72.5397 75.3882 279° West  Level Estimated
05:59AM 72.5567 74.9956 278° West  Level Estimated
06:00AM 72.5730 74.6023 278° West  Level Estimated
06:01AM 72.5885 74.2083 278° West  Level Estimated
06:02AM 72.6033 73.8136 277° West  Level Estimated
06:03AM 72.6172 73.4183 277° West  Level Estimated
06:04AM 72.6304 73.0223 277° West  Level Estimated
06:05AM 72.6428 72.6259 276° West  Level Estimated
06:06AM 72.6544 72.2288 276° West  Level Estimated
06:07AM 72.6653 71.8313 275° West  Level Estimated
06:08AM 72.6753 71.4333 275° West  Level Estimated
06:09AM 72.6846 71.0349 275° West  Level Estimated
06:10AM 72.6930 70.6361 274° West  Level Estimated
06:11AM 72.7007 70.2370 274° West  Level Estimated
06:12AM 72.7076 69.8374 274° West  Level Estimated
06:13AM 72.7137 69.4377 273° West  Level Estimated
06:14AM 72.7190 69.0376 273° West  Level Estimated
06:15AM 72.7236 68.6374 272° West  Level Estimated
06:16AM 72.7273 68.2369 272° West  Level Estimated
06:17AM 72.7302 67.8363 272° West  Level Estimated
06:18AM 72.7324 67.4356 271° West  Level Estimated
06:19AM 72.7337 67.0348 271° West  Level Estimated
06:20AM 72.7343 66.6340 270° West  Level Estimated
06:21AM 72.7340 66.2331 270° West  Level Estimated
06:22AM 72.7330 65.8323 270° West  Level Estimated
06:23AM 72.7311 65.4316 269° West  Level Estimated
06:24AM 72.7285 65.0309 269° West  Level Estimated
06:25AM 72.7251 64.6304 269° West  Level Estimated
06:26AM 72.7209 64.2301 268° West  Level Estimated
06:27AM 72.7159 63.8299 268° West  Level Estimated
06:28AM 72.7101 63.4301 267° West  Level Estimated
06:29AM 72.7035 63.0304 267° West  Level Estimated
06:30AM 72.6961 62.6311 267° West  Level Estimated
06:31AM 72.6879 62.2322 266° West  Level Estimated
06:32AM 72.6789 61.8336 266° West  Level Estimated
06:33AM 72.6692 61.4355 265° West  Level Estimated
06:34AM 72.6587 61.0378 265° West  Level Estimated
06:35AM 72.6473 60.6406 265° West  Level Estimated
06:36AM 72.6352 60.2439 264° West  Level Estimated
06:37AM 72.6224 59.8477 264° West  Level Estimated
06:38AM 72.6087 59.4522 264° West  Level Estimated
06:39AM 72.5943 59.0573 263° West  Level Estimated
06:40AM 72.5790 58.6630 263° West  Level Estimated
06:41AM 72.5630 58.2694 262° West  Level Estimated
06:42AM 72.5463 57.8765 262° West  Level Estimated
06:43AM 72.5288 57.4843 262° West  Level Estimated
06:44AM 72.5105 57.0930 261° West  Level Estimated
06:45AM 72.4914 56.7024 261° West  Level Estimated
06:46AM 72.4716 56.3127 261° West  Level Estimated
06:47AM 72.4510 55.9239 260° West  Level Estimated
06:48AM 72.4296 55.5359 260° West  Level Estimated
06:49AM 72.4075 55.1489 259° West  Level Estimated
06:50AM 72.3847 54.7629 259° West  Level Estimated
06:51AM 72.3611 54.3778 259° West  Level Estimated
06:52AM 72.3367 53.9938 258° West  Level Estimated
06:53AM 72.3117 53.6107 258° West  Level Estimated
06:54AM 72.2859 53.2288 258° West  Level Estimated
06:55AM 72.2593 52.8479 257° West  Level Estimated
06:56AM 72.2320 52.4682 257° West  Level Estimated
06:57AM 72.2040 52.0895 257° West  Level Estimated
06:58AM 72.1752 51.7121 256° West  Level Estimated
06:59AM 72.1458 51.3358 256° West  Level Estimated
07:00AM 72.1156 50.9608 255° West  Level Estimated
07:01AM 72.0847 50.5870 255° West  Level Estimated
07:02AM 72.0531 50.2145 255° West  Level Estimated
07:03AM 72.0207 49.8432 254° West  Level Estimated
07:04AM 71.9877 49.4733 254° West  Level Estimated
07:05AM 71.9540 49.1046 254° West  Level Estimated
07:06AM 71.9196 48.7374 253° West  Level Estimated
07:07AM 71.8845 48.3714 253° West  Level Estimated
07:08AM 71.8486 48.0069 253° West  Level Estimated
07:09AM 71.8122 47.6437 252° West  Level Estimated
07:10AM 71.7750 47.2820 252° West  Level Estimated
07:11AM 71.7372 46.9217 252° West  Level Estimated
07:12AM 71.6986 46.5629 251° West  Level Estimated
07:13AM 71.6595 46.2055 251° West  Level Estimated
07:14AM 71.6196 45.8496 251° West  Level Estimated
07:15AM 71.5791 45.4953 250° West  Level Estimated
07:16AM 71.5380 45.1424 250° West  Level Estimated
07:17AM 71.4961 44.7910 250° West  Level Estimated
07:18AM 71.4537 44.4412 249° West  Level Estimated
07:19AM 71.4106 44.0930 249° West  Level Estimated
07:20AM 71.3669 43.7463 249° West  Level Estimated
07:21AM 71.3225 43.4012 248° West  Level Estimated
07:22AM 71.2775 43.0577 248° West  Level Estimated
07:23AM 71.2319 42.7157 248° West  Level Estimated
07:24AM 71.1857 42.3754 247° West  Level Estimated
07:25AM 71.1388 42.0367 247° West  Level Estimated
07:26AM 71.0914 41.6997 247° West  Level Estimated
07:27AM 71.0433 41.3642 246° West  Level Estimated
07:27AM 67.3040 41.0370 246° West 451 519 38,000  Level FlightAware
07:28AM 70.9947 41.0304 246° West  Level Estimated
07:28AM 67.2780 40.8670 248° West 455 524 38,000  Level FlightAware
07:29AM 67.2330 40.5720 249° West 456 525 38,000  Level FlightAware
07:30AM 67.1980 40.3630 247° West 456 525 38,000  Level FlightAware
07:30AM 67.2130 40.4510 66° East 461 531 38,000  Level FlightAware
07:31AM 67.1840 40.2790 247° West 461 531 38,000  Level FlightAware
07:32AM 67.1490 40.0640 247° West 461 531 38,000  Level FlightAware
07:33AM 67.1210 39.8920 247° West 461 531 38,000  Level FlightAware
07:33AM 67.0920 39.7210 247° West 461 531 38,000  Level FlightAware
07:34AM 67.0640 39.5490 247° West 461 531 38,000  Level FlightAware
07:35AM 67.0360 39.3780 247° West 461 531 38,000  Level FlightAware
07:35AM 67.0000 39.1650 247° West 461 531 38,000  Level FlightAware
07:36AM 66.9720 38.9940 247° West 461 531 38,000  Level FlightAware
07:37AM 66.9430 38.8230 247° West 461 531 38,000  Level FlightAware
07:37AM 66.9150 38.6530 247° West 461 531 38,000  Level FlightAware
07:38AM 66.8870 38.4830 247° West 461 531 38,000  Level FlightAware
07:39AM 66.8510 38.2710 247° West 461 531 38,000  Level FlightAware
07:40AM 66.8230 38.1010 247° West 461 531 38,000  Level FlightAware
07:40AM 67.2330 40.5720 245° Southwest 712 819 38,000  Level FlightAware
07:42AM 66.7462 37.5670 250° West  Level Estimated
07:43AM 66.7047 37.2849 250° West  Level Estimated
07:44AM 66.6627 37.0036 249° West  Level Estimated
07:45AM 66.6202 36.7234 249° West  Level Estimated
07:46AM 66.5772 36.4441 249° West  Level Estimated
07:47AM 66.5337 36.1658 249° West  Level Estimated
07:48AM 66.4896 35.8884 248° West  Level Estimated
07:49AM 66.4452 35.6121 248° West  Level Estimated
07:50AM 66.4002 35.3367 248° West  Level Estimated
07:51AM 66.3547 35.0623 248° West  Level Estimated
07:52AM 66.3088 34.7890 247° West  Level Estimated
07:53AM 66.2624 34.5166 247° West  Level Estimated
07:54AM 66.2155 34.2452 247° West  Level Estimated
07:55AM 66.1681 33.9749 247° West  Level Estimated
07:56AM 66.1203 33.7055 246° West  Level Estimated
07:57AM 66.0720 33.4372 246° West  Level Estimated
07:58AM 66.0232 33.1699 246° West  Level Estimated
07:59AM 65.9740 32.9036 246° West  Level Estimated
08:00AM 65.9243 32.6384 245° Southwest  Level Estimated
08:01AM 65.8741 32.3742 245° Southwest  Level Estimated
08:01AM 65.4240 31.5260 248° West 464 534 38,000  Level FlightAware
08:01AM 65.3750 31.3260 240° Southwest 466 536 38,000  Level FlightAware
08:02AM 65.3310 31.1510 239° Southwest 467 537 38,000  Level FlightAware
08:03AM 65.2850 30.9660 239° Southwest 468 539 38,000  Level FlightAware
08:04AM 65.2360 30.7730 239° Southwest 467 537 38,000  Level FlightAware
08:04AM 65.1900 30.5940 239° Southwest 464 534 38,000  Level FlightAware
08:05AM 65.1410 30.4050 238° Southwest 462 532 38,000  Level FlightAware
08:06AM 65.0790 30.1640 239° Southwest 461 531 38,000  Level FlightAware
08:07AM 65.0330 29.9920 238° Southwest 461 531 38,000  Level FlightAware
08:07AM 64.9900 29.8260 239° Southwest 462 532 38,000  Level FlightAware
08:08AM 64.9360 29.6370 236° Southwest 464 534 38,000  Level FlightAware
08:09AM 64.8770 29.4860 227° Southwest 467 537 38,000  Level FlightAware
08:09AM 64.8160 29.3200 229° Southwest 467 537 38,000  Level FlightAware
08:10AM 64.7570 29.1690 228° Southwest 468 539 38,000  Level FlightAware
08:11AM 64.6890 28.9980 227° Southwest 468 539 38,000  Level FlightAware
08:12AM 64.6250 28.8370 227° Southwest 465 535 38,000  Level FlightAware
08:12AM 64.5660 28.6930 226° Southwest 464 534 38,000  Level FlightAware
08:13AM 64.5060 28.5450 227° Southwest 466 536 38,000  Level FlightAware
08:14AM 64.4380 28.3800 226° Southwest 469 540 38,000  Level FlightAware
08:14AM 64.3770 28.2330 226° Southwest 471 542 38,000  Level FlightAware
08:15AM 64.3100 28.0710 226° Southwest 471 542 38,000  Level FlightAware
08:16AM 64.2530 27.9340 226° Southwest 470 541 38,000  Level FlightAware
08:16AM 64.1920 27.7910 226° Southwest 469 540 38,000  Level FlightAware
08:17AM 64.1230 27.6280 226° Southwest 469 540 38,000  Level FlightAware
08:18AM 64.0620 27.4860 226° Southwest 468 539 38,000  Level FlightAware
08:18AM 64.0020 27.3470 225° Southwest 470 541 38,000  Level FlightAware
08:19AM 63.9350 27.1920 226° Southwest 470 541 38,000  Level FlightAware
08:20AM 63.8730 27.0500 225° Southwest 470 541 38,000  Level FlightAware
08:21AM 63.8110 26.9100 225° Southwest 471 542 38,000  Level FlightAware
08:21AM 63.7420 26.7540 225° Southwest 471 542 38,000  Level FlightAware
08:22AM 63.6800 26.6160 225° Southwest 473 544 38,000  Level FlightAware
08:23AM 63.6120 26.4630 225° Southwest 474 545 38,000  Level FlightAware
08:23AM 63.5500 26.3280 224° Southwest 470 541 38,000  Level FlightAware
08:24AM 63.4870 26.1880 225° Southwest 469 540 38,000  Level FlightAware
08:25AM 63.4180 26.0380 224° Southwest 470 541 38,000  Level FlightAware
08:25AM 63.3600 25.9120 224° Southwest 471 542 38,000  Level FlightAware
08:26AM 63.2990 25.7800 224° Southwest 470 541 38,000  Level FlightAware
08:27AM 63.2270 25.6280 224° Southwest 467 537 38,000  Level FlightAware
08:28AM 63.1650 25.4950 224° Southwest 470 541 38,000  Level FlightAware
08:28AM 63.0950 25.3470 224° Southwest 468 539 38,000  Level FlightAware
08:29AM 63.0310 25.2140 223° Southwest 467 537 38,000  Level FlightAware
08:30AM 62.9700 25.0870 223° Southwest 469 540 38,000  Level FlightAware
08:30AM 62.8970 24.9360 223° Southwest 465 535 38,000  Level FlightAware
08:31AM 62.8490 24.8370 223° Southwest 465 535 38,000  Level FlightAware
08:32AM 62.7870 24.7090 223° Southwest 464 534 38,000  Level FlightAware
08:32AM 62.7240 24.5800 223° Southwest 462 532 38,000  Level FlightAware
08:33AM 62.6520 24.4370 222° Southwest 461 531 38,000  Level FlightAware
08:34AM 62.5890 24.3090 223° Southwest 461 531 38,000  Level FlightAware
08:34AM 62.5280 24.1880 222° Southwest 460 529 38,000  Level FlightAware
08:35AM 62.4550 24.0420 223° Southwest 460 529 38,000  Level FlightAware
08:36AM 62.3910 23.9160 222° Southwest 457 526 38,000  Level FlightAware
08:36AM 62.3230 23.7830 222° Southwest 459 528 38,000  Level FlightAware
08:37AM 62.2470 23.6350 222° Southwest 473 544 38,000  Level FlightAware
08:38AM 62.1840 23.5150 222° Southwest 472 543 38,000  Level FlightAware
08:39AM 62.1200 23.3900 222° Southwest 460 529 38,000  Level FlightAware
08:39AM 62.0550 23.2660 222° Southwest 458 527 38,000  Level FlightAware
08:40AM 61.9820 23.1280 222° Southwest 455 524 38,000  Level FlightAware
08:41AM 61.9200 23.0110 222° Southwest 458 527 38,000  Level FlightAware
08:41AM 61.8480 22.8760 222° Southwest 456 525 38,000  Level FlightAware
08:42AM 61.7850 22.7600 221° Southwest 453 521 38,000  Level FlightAware
08:43AM 61.7120 22.6250 221° Southwest 451 519 38,000  Level FlightAware
08:43AM 61.6490 22.5080 221° Southwest 455 524 38,000  Level FlightAware
08:44AM 61.5860 22.3870 222° Southwest 454 522 38,000  Level FlightAware
08:45AM 61.5170 22.2470 224° Southwest 452 520 38,000  Level FlightAware
08:46AM 61.4570 22.1270 224° Southwest 449 517 38,000  Level FlightAware
08:46AM 61.3880 21.9900 224° Southwest 446 513 38,000  Level FlightAware
08:47AM 61.3310 21.8780 223° Southwest 442 509 38,000  Level FlightAware
08:48AM 61.2730 21.7670 223° Southwest 438 504 38,000  Level FlightAware
08:48AM 61.2020 21.6290 223° Southwest 439 505 38,000  Level FlightAware
08:49AM 61.1450 21.5170 224° Southwest 440 506 38,000  Level FlightAware
08:50AM 61.0770 21.3870 223° Southwest 444 511 38,000  Level FlightAware
08:50AM 61.0160 21.2720 222° Southwest 442 509 38,000  Level FlightAware
08:51AM 60.9550 21.1560 223° Southwest 445 512 38,000 540 Level FlightAware
08:52AM 60.8850 21.0240 223° Southwest 442 509 38,800 1,080 Climbing FlightAware
08:53AM 60.8260 20.9140 222° Southwest 436 502 39,600 840 Climbing FlightAware
08:53AM 60.7580 20.7870 222° Southwest 440 506 40,000 240 Climbing FlightAware
08:54AM 60.7010 20.6800 223° Southwest 440 506 40,000  Level FlightAware
08:55AM 60.6350 20.5600 222° Southwest 438 504 40,000  Level FlightAware
08:55AM 60.5670 20.4340 222° Southwest 436 502 40,000  Level FlightAware
08:56AM 60.5070 20.3260 222° Southwest 437 503 40,000  Level FlightAware
08:57AM 60.4480 20.2190 222° Southwest 436 502 40,000  Level FlightAware
08:57AM 60.3760 20.0900 222° Southwest 444 511 40,000  Level FlightAware
08:58AM 60.3160 19.9810 222° Southwest 443 510 40,000  Level FlightAware
08:59AM 60.2450 19.8550 221° Southwest 440 506 40,000  Level FlightAware
09:00AM 60.1840 19.7470 221° Southwest 443 510 40,000  Level FlightAware
09:00AM 60.1220 19.6370 221° Southwest 445 512 40,000  Level FlightAware
09:01AM 60.0560 19.5210 221° Southwest 447 514 40,000  Level FlightAware
09:02AM 59.9870 19.3900 224° Southwest 438 504 40,000  Level FlightAware
09:02AM 59.9380 19.2590 233° Southwest 431 496 40,000  Level FlightAware
09:03AM 59.8980 19.1260 239° Southwest 430 495 40,000  Level FlightAware
09:04AM 59.8530 18.9790 239° Southwest 427 491 40,000  Level FlightAware
09:04AM 59.8110 18.8460 238° Southwest 427 491 40,000  Level FlightAware
09:05AM 59.7620 18.6920 238° Southwest 429 494 40,000  Level FlightAware
09:06AM 59.7130 18.5660 232° Southwest 443 510 40,000  Level FlightAware
09:07AM 59.6540 18.4540 224° Southwest 445 512 40,000  Level FlightAware
09:07AM 59.5960 18.3400 225° Southwest 449 517 40,000  Level FlightAware
09:08AM 59.5310 18.2170 224° Southwest 451 519 40,000  Level FlightAware
09:09AM 59.4700 18.1010 224° Southwest 450 518 40,000  Level FlightAware
09:09AM 59.4020 17.9720 224° Southwest 447 514 40,000  Level FlightAware
09:10AM 59.3430 17.8590 224° Southwest 442 509 40,000  Level FlightAware
09:11AM 59.2780 17.7370 224° Southwest 444 511 40,000  Level FlightAware
09:11AM 59.2170 17.6230 224° Southwest 449 517 40,000  Level FlightAware
09:12AM 59.1570 17.5120 224° Southwest 445 512 40,000  Level FlightAware
09:13AM 59.0910 17.3890 224° Southwest 441 507 40,000  Level FlightAware
09:14AM 59.0320 17.2770 224° Southwest 439 505 40,000  Level FlightAware
09:14AM 58.9680 17.1560 224° Southwest 442 509 40,000  Level FlightAware
09:15AM 58.9080 17.0450 224° Southwest 440 506 40,000  Level FlightAware
09:16AM 58.8510 16.9390 224° Southwest 433 498 40,000  Level FlightAware
09:16AM 58.7830 16.8150 223° Southwest 431 496 40,000  Level FlightAware
09:17AM 58.7280 16.7130 224° Southwest 432 497 40,000  Level FlightAware
09:18AM 58.6620 16.5910 224° Southwest 436 502 40,000  Level FlightAware
09:18AM 58.6030 16.4850 223° Southwest 437 503 40,000  Level FlightAware
09:19AM 58.5380 16.3680 223° Southwest 439 505 40,000  Level FlightAware
09:20AM 58.4800 16.2620 224° Southwest 440 506 40,000  Level FlightAware
09:21AM 58.4230 16.1610 223° Southwest 443 510 40,000  Level FlightAware
09:21AM 58.3520 16.0350 223° Southwest 444 511 40,000  Level FlightAware
09:22AM 58.2930 15.9310 223° Southwest 442 509 40,000  Level FlightAware
09:23AM 58.2340 15.8270 223° Southwest 445 512 40,000  Level FlightAware
09:23AM 58.1660 15.7070 223° Southwest 448 516 40,000  Level FlightAware
09:24AM 58.1040 15.5980 223° Southwest 450 518 40,000  Level FlightAware
09:25AM 58.0350 15.4780 223° Southwest 448 516 40,000  Level FlightAware
09:26AM 57.9480 15.3280 222° Southwest 446 513 40,000  Level FlightAware
09:26AM 57.8890 15.2270 222° Southwest 448 516 40,000  Level FlightAware
09:27AM 57.8220 15.1130 222° Southwest 450 518 40,000  Level FlightAware
09:28AM 57.7590 15.0060 222° Southwest 453 521 40,000  Level FlightAware
09:29AM 57.6880 14.8860 222° Southwest 452 520 40,000  Level FlightAware
09:29AM 57.6270 14.7840 222° Southwest 451 519 40,000  Level FlightAware
09:30AM 57.5660 14.6790 223° Southwest 451 519 40,000  Level FlightAware
09:31AM 57.5020 14.5500 227° Southwest 449 517 40,000  Level FlightAware
09:31AM 57.4460 14.4390 227° Southwest 453 521 40,000  Level FlightAware
09:32AM 57.3800 14.3090 227° Southwest 449 517 40,000  Level FlightAware
09:33AM 57.3230 14.2000 226° Southwest 447 514 40,000  Level FlightAware
09:33AM 57.2670 14.0930 226° Southwest 448 516 40,000  Level FlightAware
09:34AM 57.2030 13.9710 226° Southwest 446 513 40,000  Level FlightAware
09:35AM 57.1430 13.8570 226° Southwest 444 511 40,000  Level FlightAware
09:36AM 57.0820 13.7400 226° Southwest 443 510 40,000  Level FlightAware
09:36AM 57.0310 13.6450 225° Southwest 444 511 40,000  Level FlightAware
09:37AM 56.9680 13.5260 226° Southwest 444 511 40,000  Level FlightAware
09:38AM 56.9020 13.4040 225° Southwest 441 507 40,000  Level FlightAware
09:38AM 56.8460 13.3000 225° Southwest 439 505 40,000  Level FlightAware
09:39AM 56.7890 13.1930 226° Southwest 438 504 40,000  Level FlightAware
09:40AM 56.7250 13.0760 225° Southwest 434 499 40,000  Level FlightAware
09:40AM 56.6690 12.9740 225° Southwest 436 502 40,000  Level FlightAware
09:41AM 56.6030 12.8530 225° Southwest 438 504 40,000  Level FlightAware
09:42AM 56.5460 12.7500 225° Southwest 437 503 40,000  Level FlightAware
09:43AM 56.4830 12.6360 225° Southwest 436 502 40,000  Level FlightAware
09:43AM 56.4280 12.5300 227° Southwest 433 498 40,000  Level FlightAware
09:44AM 56.3790 12.4280 229° Southwest 429 494 40,000  Level FlightAware
09:45AM 56.3230 12.3130 229° Southwest 425 489 40,000  Level FlightAware
09:45AM 56.2660 12.1980 228° Southwest 424 488 40,000  Level FlightAware
09:46AM 56.2130 12.0920 228° Southwest 425 489 40,000  Level FlightAware
09:47AM 56.1550 11.9760 228° Southwest 424 488 40,000  Level FlightAware
09:47AM 56.1020 11.8710 228° Southwest 424 488 40,000  Level FlightAware
09:48AM 56.0420 11.7530 228° Southwest 424 488 40,000  Level FlightAware
09:49AM 55.9890 11.6470 228° Southwest 423 487 40,000  Level FlightAware
09:49AM 55.9370 11.5450 228° Southwest 423 487 40,000  Level FlightAware
09:50AM 55.8790 11.4330 227° Southwest 423 487 40,000  Level FlightAware
09:51AM 55.8080 11.2940 228° Southwest 423 487 40,000  Level FlightAware
09:52AM 55.7530 11.1890 227° Southwest 424 488 40,000  Level FlightAware
09:53AM 55.6940 11.0760 227° Southwest 426 490 40,000  Level FlightAware
09:53AM 55.6390 10.9690 228° Southwest 426 490 40,000  Level FlightAware
09:54AM 55.5860 10.8700 227° Southwest 423 487 40,000  Level FlightAware
09:55AM 55.5250 10.7540 227° Southwest 419 482 40,000  Level FlightAware
09:55AM 55.4740 10.6570 227° Southwest 420 483 40,000  Level FlightAware
09:56AM 55.4300 10.5750 227° Southwest 421 484 40,000  Level FlightAware
09:57AM 55.3620 10.4470 227° Southwest 420 483 40,000  Level FlightAware
09:57AM 55.3080 10.3470 227° Southwest 420 483 40,000  Level FlightAware
09:58AM 55.2500 10.2390 227° Southwest 421 484 40,000  Level FlightAware
09:59AM 55.1970 10.1410 227° Southwest 421 484 40,000  Level FlightAware
10:00AM 55.1340 10.0250 226° Southwest 421 484 40,000  Level FlightAware
10:00AM 55.0730 9.9140 226° Southwest 422 486 40,000  Level FlightAware
10:01AM 55.0210 9.8190 226° Southwest 421 484 40,000  Level FlightAware
10:02AM 54.9670 9.7210 226° Southwest 420 483 40,000  Level FlightAware
10:02AM 54.9050 9.6100 226° Southwest 422 486 40,000  Level FlightAware
10:03AM 54.8510 9.5130 226° Southwest 423 487 40,000  Level FlightAware
10:04AM 54.7900 9.4040 226° Southwest 426 490 40,000  Level FlightAware
10:04AM 54.7350 9.3050 226° Southwest 426 490 40,000  Level FlightAware
10:05AM 54.6810 9.2100 226° Southwest 423 487 40,000  Level FlightAware
10:06AM 54.6190 9.1010 226° Southwest 424 488 40,000  Level FlightAware
10:07AM 54.5680 9.0110 226° Southwest 427 491 40,000  Level FlightAware
10:07AM 54.5020 8.8940 226° Southwest 428 493 40,000  Level FlightAware
10:08AM 54.4580 8.8180 225° Southwest 429 494 40,000  Level FlightAware
10:09AM 54.3990 8.6940 231° Southwest 424 488 40,000  Level FlightAware
10:09AM 54.3500 8.5720 235° Southwest 423 487 40,000  Level FlightAware
10:10AM 54.3060 8.4630 235° Southwest 421 484 40,000  Level FlightAware
10:11AM 54.2550 8.3370 235° Southwest 423 487 40,000  Level FlightAware
10:11AM 54.2110 8.2280 235° Southwest 423 487 40,000  Level FlightAware
10:12AM 54.1650 8.1160 235° Southwest 424 488 40,000  Level FlightAware
10:13AM 54.1210 8.0080 235° Southwest 423 487 40,000  Level FlightAware
10:14AM 54.0710 7.8890 234° Southwest 425 489 40,000  Level FlightAware
10:14AM 54.0170 7.7590 235° Southwest 427 491 40,000  Level FlightAware
10:15AM 53.9740 7.6540 235° Southwest 426 490 40,000  Level FlightAware
10:16AM 53.9220 7.5310 234° Southwest 425 489 40,000  Level FlightAware
10:16AM 53.8760 7.4200 235° Southwest 426 490 40,000  Level FlightAware
10:17AM 53.8300 7.3110 234° Southwest 425 489 40,000  Level FlightAware
10:18AM 53.7810 7.1960 234° Southwest 422 486 40,000  Level FlightAware
10:18AM 53.7350 7.0880 234° Southwest 421 484 40,000  Level FlightAware
10:19AM 53.6830 6.9670 234° Southwest 421 484 40,000 -1,560 Level FlightAware
10:19AM 53.6594 6.9151 234° Southwest 1 1 38,400 -2,760 Descending FlightAware UK
10:20AM 53.6391 6.8674 234° Southwest 1 1 38,400 4,140 Level FlightAware UK
10:20AM 53.6370 6.8610 234° Southwest 421 484 40,000  Climbing FlightAware
10:20AM 53.6120 6.8038 234° Southwest 1 1 38,400 -2,640 Descending FlightAware UK
10:20AM 53.5922 6.7561 235° Southwest 1 1 38,400 3,660 Level FlightAware UK
10:21AM 53.5850 6.7400 235° Southwest 420 483 40,000  Climbing FlightAware
10:21AM 53.5644 6.6932 235° Southwest 1 1 38,400 -2,880 Descending FlightAware UK
10:21AM 53.5445 6.6454 235° Southwest 1 1 38,400 3,960 Level FlightAware UK
10:21AM 53.5430 6.6430 235° Southwest 420 483 40,000  Climbing FlightAware
10:22AM 53.5164 6.5823 235° Southwest 1 1 38,400 -2,700 Descending FlightAware UK
10:22AM 53.4953 6.5348 233° Southwest 470 541 38,400 4,320 Level FlightAware UK
10:22AM 53.4940 6.5300 233° Southwest 425 489 40,000  Climbing FlightAware
10:22AM 53.4677 6.4711 233° Southwest 470 541 38,400 -2,580 Descending FlightAware UK
10:23AM 53.4465 6.4234 233° Southwest 472 543 38,400 3,840 Level FlightAware UK
10:23AM 53.4450 6.4180 233° Southwest 426 490 40,000  Climbing FlightAware
10:23AM 53.4190 6.3594 233° Southwest 470 541 38,400 -2,760 Descending FlightAware UK
10:23AM 53.3979 6.3119 233° Southwest 470 541 38,400 4,140 Level FlightAware UK
10:23AM 53.3960 6.3070 233° Southwest 422 486 40,000  Climbing FlightAware
10:24AM 53.3702 6.2486 233° Southwest 468 539 38,400 -2,640 Descending FlightAware UK
10:24AM 53.3496 6.2012 234° Southwest 468 539 38,400 3,660 Level FlightAware UK
10:24AM 53.3420 6.1860 234° Southwest 418 481 40,000  Climbing FlightAware
10:24AM 53.3211 6.1385 234° Southwest 468 539 38,400 -2,880 Descending FlightAware UK
10:25AM 53.2998 6.0915 233° Southwest 468 539 38,400 3,960 Level FlightAware UK
10:25AM 53.2990 6.0880 233° Southwest 418 481 40,000  Climbing FlightAware
10:25AM 53.2649 6.0131 233° Southwest 468 539 38,400  Descending FlightAware UK
10:25AM 53.2530 5.9860 233° Southwest 417 480 40,000 1,560 Climbing FlightAware
10:26AM 53.2000 5.8660 234° Southwest 419 482 40,000 -1,560 Level FlightAware
10:26AM 53.1753 5.8099 234° Southwest 468 539 38,400  Descending FlightAware UK
10:27AM 53.1530 5.7530 234° Southwest 417 480 40,000  Climbing FlightAware
10:27AM 53.1295 5.6973 234° Southwest 468 539 38,400  Descending FlightAware UK
10:28AM 53.1060 5.6360 234° Southwest 417 480 40,000 1,440 Climbing FlightAware
10:28AM 53.0630 5.5340 235° Southwest 418 481 40,000 -1,380 Level FlightAware
10:29AM 53.0250 5.4394 235° Southwest 468 539 38,400  Descending FlightAware UK
10:29AM 53.0190 5.4260 235° Southwest 421 484 40,000  Climbing FlightAware
10:29AM 52.9848 5.3440 235° Southwest 468 539 38,400  Descending FlightAware UK
10:30AM 52.9710 5.3100 235° Southwest 423 487 40,000  Climbing FlightAware
10:30AM 52.9452 5.2483 235° Southwest 470 541 38,400 -2,760 Descending FlightAware UK
10:30AM 52.9250 5.2005 235° Southwest 470 541 38,400 4,140 Level FlightAware UK
10:30AM 52.9230 5.1950 235° Southwest 423 487 40,000 1,920 Climbing FlightAware
10:31AM 52.8720 5.0740 235° Southwest 421 484 40,000 -1,320 Level FlightAware
10:32AM 52.8382 4.9944 235° Southwest 468 539 38,400  Descending FlightAware UK
10:32AM 52.8340 4.9840 235° Southwest 420 483 40,000  Climbing FlightAware
10:32AM 52.7918 4.8840 235° Southwest 468 539 38,400  Descending FlightAware UK
10:32AM 52.7850 4.8680 235° Southwest 420 483 40,000  Climbing FlightAware
10:33AM 52.7454 4.7738 235° Southwest 468 539 38,400  Descending FlightAware UK
10:33AM 52.7370 4.7560 235° Southwest 422 486 40,000  Climbing FlightAware
10:33AM 52.7122 4.6952 235° Southwest 468 539 38,400 -2,760 Descending FlightAware UK
10:34AM 52.6923 4.6481 235° Southwest 468 539 38,400 4,140 Level FlightAware UK
10:34AM 52.6890 4.6430 235° Southwest 424 488 40,000 1,920 Climbing FlightAware
10:35AM 52.6380 4.5230 235° Southwest 424 488 40,000  Level FlightAware
10:35AM 52.5990 4.4330 235° Southwest 426 490 40,000 -1,860 Level FlightAware
10:35AM 52.5773 4.3801 235° Southwest 468 539 38,400  Descending FlightAware UK
10:36AM 52.5490 4.3180 235° Southwest 427 491 40,000 1,260 Climbing FlightAware
10:37AM 52.4950 4.1940 234° Southwest 425 489 40,000 -1,440 Level FlightAware
10:37AM 52.4664 4.1276 234° Southwest 468 539 38,400  Descending FlightAware UK
10:37AM 52.4560 4.1050 234° Southwest 424 488 40,000 1,680 Climbing FlightAware
10:38AM 52.4070 3.9930 234° Southwest 419 482 40,000 -1,620 Level FlightAware
10:38AM 52.3841 3.9401 234° Southwest 468 539 38,400  Descending FlightAware UK
10:39AM 52.3550 3.8730 234° Southwest 418 481 40,000 1,320 Climbing FlightAware
10:39AM 52.3090 3.7700 234° Southwest 417 480 40,000  Level FlightAware
10:40AM 52.2570 3.6530 234° Southwest 417 480 40,000 -1,440 Level FlightAware
10:41AM 52.2266 3.5843 234° Southwest 468 539 38,400  Descending FlightAware UK
10:41AM 52.2120 3.5530 234° Southwest 417 480 40,000  Climbing FlightAware
10:41AM 52.1719 3.4613 234° Southwest 468 539 38,400  Descending FlightAware UK
10:42AM 52.1610 3.4390 234° Southwest 416 479 40,000  Climbing FlightAware
10:42AM 52.1305 3.3697 234° Southwest 464 534 38,400  Descending FlightAware UK
10:42AM 52.1150 3.3350 234° Southwest 417 480 40,000  Climbing FlightAware
10:43AM 52.0893 3.2784 234° Southwest 466 536 38,400 -2,700 Descending FlightAware UK
10:43AM 52.0684 3.2325 234° Southwest 466 536 38,400 4,320 Level FlightAware UK
10:43AM 52.0700 3.2360 234° Southwest 423 487 40,000  Climbing FlightAware
10:43AM 52.0267 3.1407 234° Southwest 468 539 38,400  Descending FlightAware UK
10:44AM 52.0210 3.1280 234° Southwest 424 488 40,000 1,980 Climbing FlightAware
10:44AM 51.9770 3.0310 234° Southwest 421 484 40,000 -540 Level FlightAware
10:45AM 51.9260 2.9140 235° Southwest 417 480 39,300 -1,200 Descending FlightAware
10:46AM 51.9060 2.7870 256° West 413 475 38,200 -3,360 Descending FlightAware
10:46AM 51.8960 2.7121 256° West 468 539 35,800 -2,400 Descending FlightAware UK
10:46AM 51.8890 2.6570 256° West 408 470 36,600 -2,340 Climbing FlightAware
10:47AM 51.8795 2.5866 256° West 462 532 34,200 -1,980 Descending FlightAware UK
10:47AM 51.8730 2.5390 256° West 402 463 35,300 -1,920 Climbing FlightAware
10:47AM 51.8632 2.4642 256° West 452 520 32,900 -2,040 Descending FlightAware UK
10:48AM 51.8560 2.4090 256° West 396 456 33,800 -1,860 Climbing FlightAware
10:48AM 51.8473 2.3432 256° West 448 516 31,600 -2,100 Descending FlightAware UK
10:49AM 51.8402 2.2894 256° West 394 453 32,500 -1,860 Climbing FlightAware ADS-B
10:49AM 51.8314 2.2233 256° West 438 504 30,300 -1,800 Descending FlightAware UK
10:49AM 51.8288 2.2045 256° West 389 448 31,600 -2,040 Climbing FlightAware ADS-B
10:49AM 51.8222 2.1555 256° West 434 499 29,500 -1,860 Descending FlightAware UK
10:50AM 51.8146 2.0989 256° West 383 441 30,500 -1,800 Climbing FlightAware ADS-B
10:50AM 51.8044 2.0234 256° West 424 488 28,100 -1,860 Descending FlightAware UK
10:50AM 51.8017 2.0029 256° West 379 436 29,400 -2,040 Climbing FlightAware ADS-B
10:50AM 51.7955 1.9574 256° West 422 486 27,300 -1,860 Descending FlightAware UK
10:51AM 51.7878 1.9014 256° West 379 436 28,300 -1,860 Climbing FlightAware ADS-B
10:51AM 51.7818 1.8584 256° West 418 481 26,200 -2,040 Descending FlightAware UK
10:51AM 51.7753 1.8107 256° West 377 434 27,200 -1,860 Climbing FlightAware ADS-B
10:52AM 51.7681 1.7596 256° West 416 479 25,100 -1,800 Descending FlightAware UK
10:52AM 51.7639 1.7280 256° West 375 432 26,300 -1,800 Climbing FlightAware ADS-B
10:52AM 51.7569 1.6778 256° West 412 474 24,200 -1,800 Descending FlightAware UK
10:52AM 51.7523 1.6444 256° West 373 429 25,400 900 Climbing FlightAware ADS-B
10:53AM 51.7467 1.5915 260° West 372 428 24,700 -3,000 Descending FlightAware ADS-B
10:53AM 51.7407 1.5093 263° West 359 413 22,900 -5,640 Descending FlightAware ADS-B
10:53AM 51.7376 1.4687 263° West 388 447 20,500 -3,300 Descending FlightAware UK
10:54AM 51.7342 1.4289 263° West 344 396 21,200 -2,880 Climbing FlightAware ADS-B
10:54AM 51.7301 1.3783 263° West 364 419 18,800 -2,100 Descending FlightAware UK
10:54AM 51.7281 1.3504 263° West 316 364 20,100 -2,040 Climbing FlightAware ADS-B
10:55AM 51.7248 1.3083 263° West 336 387 17,800 -2,520 Descending FlightAware UK
10:55AM 51.7227 1.2790 263° West 305 351 18,800 -2,040 Climbing FlightAware ADS-B
10:55AM 51.7199 1.2414 263° West 332 382 16,800 -1,620 Descending FlightAware UK
10:55AM 51.7175 1.2054 263° West 299 344 17,900 2,040 Climbing FlightAware ADS-B
10:56AM 51.7167 1.1855 266° West 298 343 17,700 -1,560 Descending FlightAware ADS-B
10:56AM 51.7160 1.1190 269° West 296 341 16,900 -3,840 Descending FlightAware ADS-B
10:56AM 51.7157 1.0827 269° West 322 371 14,800 -2,040 Descending FlightAware UK
10:57AM 51.7153 1.0523 269° West 291 335 15,900 -1,620 Climbing FlightAware ADS-B
10:57AM 51.7150 1.0174 269° West 316 364 14,000 -1,380 Descending FlightAware UK
10:57AM 51.7140 0.9667 269° West 288 331 15,000 -900 Climbing FlightAware ADS-B
10:57AM 51.7134 0.9292 269° West 298 343 13,400  Descending FlightAware UK
10:58AM 51.7131 0.9048 269° West 260 299 15,000 180 Climbing FlightAware ADS-B
10:58AM 51.7125 0.8720 269° West 276 318 13,500  Descending FlightAware UK
10:58AM 51.7121 0.8466 269° West 253 291 15,000  Climbing FlightAware ADS-B
10:58AM 51.7117 0.8155 269° West 278 320 13,500  Descending FlightAware UK
10:59AM 51.7114 0.7896 269° West 252 290 15,000 2,040 Climbing FlightAware ADS-B
10:59AM 51.7107 0.7331 269° West 253 291 15,000 -2,040 Level FlightAware ADS-B
10:59AM 51.7103 0.7036 269° West 276 318 13,500  Descending FlightAware UK
11:00AM 51.7098 0.6685 269° West 253 291 15,000  Climbing FlightAware ADS-B
11:00AM 51.7090 0.6247 269° West 276 318 13,500  Descending FlightAware UK
11:01AM 51.7035 0.5866 269° West 250 288 15,000 1,680 Climbing FlightAware ADS-B
11:01AM 51.6965 0.5304 259° West 251 289 15,000 -1,800 Level FlightAware ADS-B
11:01AM 51.6920 0.4933 259° West 276 318 13,500  Descending FlightAware UK
11:02AM 51.6873 0.4568 259° West 251 289 15,000  Climbing FlightAware ADS-B
11:02AM 51.6821 0.4168 259° West 276 318 13,500  Descending FlightAware UK
11:02AM 51.6782 0.3877 259° West 250 288 15,000 1,500 Climbing FlightAware ADS-B
11:03AM 51.6707 0.3324 258° West 249 287 14,700 -2,460 Descending FlightAware ADS-B
11:03AM 51.6659 0.2974 258° West 276 318 13,000 -420 Descending FlightAware UK
11:03AM 51.6630 0.2758 258° West 248 285 14,500 1,620 Climbing FlightAware ADS-B
11:04AM 51.6554 0.2198 258° West 245 282 14,200 -2,280 Descending FlightAware ADS-B
11:04AM 51.6500 0.1798 258° West 272 313 12,500 -420 Descending FlightAware UK
11:04AM 51.6481 0.1664 258° West 245 282 14,000 3,120 Climbing FlightAware ADS-B
11:05AM 51.6439 0.1358 258° West 244 281 13,800 -540 Descending FlightAware ADS-B
11:05AM 51.6425 0.1272 255° West 244 281 13,800 -480 Level FlightAware ADS-B
11:05AM 51.6392 0.1140 248° West 243 280 13,700 -420 Descending FlightAware ADS-B
11:05AM 51.6345 0.1017 238° Southwest 245 282 13,700 -360 Level FlightAware ADS-B
11:05AM 51.6271 0.0890 227° Southwest 248 285 13,600 -780 Descending FlightAware ADS-B
11:05AM 51.6204 0.0816 214° Southwest 251 289 13,500 -600 Descending FlightAware ADS-B
11:05AM 51.6159 0.0781 206° Southwest 253 291 13,500 -420 Level FlightAware ADS-B
11:06AM 51.6037 0.0732 194° South 260 299 13,400 -660 Descending FlightAware ADS-B
11:06AM 51.5940 0.0733 179° South 264 304 13,300 -660 Descending FlightAware ADS-B
11:06AM 51.5799 0.0796 165° South 274 315 13,200 -420 Descending FlightAware ADS-B
11:06AM 51.5740 0.0850 150° Southeast 277 319 13,200 -420 Level FlightAware ADS-B
11:06AM 51.5641 0.0991 138° Southeast 284 327 13,100 -600 Descending FlightAware ADS-B
11:06AM 51.5569 0.1160 124° Southeast 288 331 13,000 -1,380 Descending FlightAware ADS-B
11:06AM 51.5530 0.1342 109° East 290 334 12,700 -1,860 Descending FlightAware ADS-B
11:07AM 51.5523 0.1417 99° East 294 338 12,600 -2,820 Descending FlightAware ADS-B
11:07AM 51.5531 0.1629 87° East 302 348 12,100 -2,820 Descending FlightAware ADS-B
11:07AM 51.5545 0.1711 75° East 305 351 12,000 -2,820 Descending FlightAware ADS-B
11:07AM 51.5598 0.1881 63° Northeast 309 356 11,500 -2,820 Descending FlightAware ADS-B
11:07AM 51.5658 0.1992 49° Northeast 309 356 11,300 -2,160 Descending FlightAware ADS-B
11:07AM 51.5752 0.2097 35° Northeast 305 351 11,000 -2,160 Descending FlightAware ADS-B
11:07AM 51.5821 0.2144 23° Northeast 302 348 10,800 -1,680 Descending FlightAware ADS-B
11:07AM 51.5890 0.2171 14° North 298 343 10,700 -1,500 Descending FlightAware ADS-B
11:07AM 51.5996 0.2178 North 291 335 10,500 -1,200 Descending FlightAware ADS-B
11:08AM 51.6098 0.2150 350° North 282 325 10,400 -1,020 Descending FlightAware ADS-B
11:08AM 51.6147 0.2120 339° North 278 320 10,300 -1,620 Descending FlightAware ADS-B
11:08AM 51.6257 0.2013 329° Northwest 271 312 10,000 -1,800 Descending FlightAware ADS-B
11:08AM 51.6315 0.1919 315° West 268 308 9,800 -1,200 Descending FlightAware ADS-B
11:08AM 51.6344 0.1855 306° West 266 306 9,800 -720 Level FlightAware ADS-B
11:08AM 51.6374 0.1771 300° West 263 303 9,700 -780 Descending FlightAware ADS-B
11:08AM 51.6471 0.1450 296° West 252 290 9,500 -720 Descending FlightAware ADS-B
11:08AM 51.6513 0.1312 296° West 246 283 9,400 -480 Descending FlightAware ADS-B
11:09AM 51.6531 0.1232 290° West 244 281 9,400 -1,140 Level FlightAware ADS-B
11:09AM 51.6547 0.1119 283° West 244 281 9,200 -2,220 Descending FlightAware ADS-B
11:09AM 51.6553 0.1031 276° West 246 283 9,000 -1,200 Descending FlightAware ADS-B
11:09AM 51.6562 0.0759 273° West 242 278 8,800 -720 Descending FlightAware ADS-B
11:09AM 51.6567 0.0583 273° West 236 272 8,700 -840 Descending FlightAware ADS-B
11:09AM 51.6565 0.0490 268° West 233 268 8,600 -600 Descending FlightAware ADS-B
11:09AM 51.6553 0.0405 257° West 232 267 8,600 -480 Level FlightAware ADS-B
11:09AM 51.6514 0.0282 243° Southwest 228 262 8,500 -720 Descending FlightAware ADS-B
11:10AM 51.6449 0.0178 225° Southwest 227 261 8,400 -1,440 Descending FlightAware ADS-B
11:10AM 51.6409 0.0134 215° Southwest 229 264 8,200 -2,400 Descending FlightAware ADS-B
11:10AM 51.6355 0.0087 208° Southwest 231 266 8,000 -2,160 Descending FlightAware ADS-B
11:10AM 51.6275 0.0029 204° Southwest 232 267 7,700 -2,100 Descending FlightAware ADS-B
11:10AM 51.6156 -0.0048 202° Southwest 232 267 7,300 -2,220 Descending FlightAware ADS-B
11:10AM 51.6087 -0.0073 193° South 236 272 7,000 -2,400 Descending FlightAware ADS-B
11:10AM 51.5993 -0.0066 177° South 243 280 6,700 -2,340 Descending FlightAware ADS-B
11:10AM 51.5941 -0.0044 165° South 246 283 6,500 -2,340 Descending FlightAware ADS-B
11:11AM 51.5855 0.0010 159° South 248 285 6,200 -2,100 Descending FlightAware ADS-B
11:11AM 51.5691 0.0135 155° Southeast 253 291 5,700 -1,740 Descending FlightAware ADS-B
11:11AM 51.5636 0.0176 155° Southeast 253 291 5,600 -1,140 Descending FlightAware ADS-B
11:11AM 51.5581 0.0209 159° South 252 290 5,500 -1,500 Descending FlightAware ADS-B
11:11AM 51.5500 0.0243 165° South 249 287 5,300 -1,200 Descending FlightAware ADS-B
11:11AM 51.5362 0.0281 170° South 240 276 5,100 -600 Descending FlightAware ADS-B
11:12AM 51.5175 0.0329 171° South 224 258 5,000 -480 Descending FlightAware ADS-B
11:12AM 51.5069 0.0356 171° South 213 245 4,900 -300 Descending FlightAware ADS-B
11:12AM 51.4980 0.0351 182° South 200 230 4,900 -480 Level FlightAware ADS-B
11:12AM 51.4941 0.0332 197° South 195 224 4,800 -600 Descending FlightAware ADS-B
11:12AM 51.4899 0.0293 210° Southwest 191 220 4,800  Level FlightAware ADS-B
11:12AM 51.4877 0.0265 219° Southwest 186 214 4,800  Level FlightAware ADS-B
11:12AM 51.4856 0.0233 224° Southwest 184 212 4,800  Level FlightAware ADS-B
11:12AM 51.4817 0.0162 229° Southwest 181 208 4,800 -240 Level FlightAware ADS-B
11:13AM 51.4713 -0.0043 231° Southwest 180 207 4,700 -540 Descending FlightAware ADS-B
11:13AM 51.4699 -0.0076 236° Southwest 178 205 4,600 -720 Descending FlightAware ADS-B
11:13AM 51.4682 -0.0143 248° West 175 201 4,600  Level FlightAware ADS-B
11:13AM 51.4674 -0.0188 254° West 174 200 4,600  Level FlightAware ADS-B
11:13AM 51.4666 -0.0258 260° West 173 199 4,600  Level FlightAware ADS-B
11:13AM 51.4658 -0.0352 262° West 172 198 4,600 -420 Level FlightAware ADS-B
11:13AM 51.4655 -0.0465 268° West 171 197 4,500 -720 Descending FlightAware ADS-B
11:13AM 51.4654 -0.0570 269° West 170 196 4,400 -780 Descending FlightAware ADS-B
11:14AM 51.4655 -0.0766 270° West 170 196 4,200 -1,020 Descending FlightAware ADS-B
11:14AM 51.4654 -0.0962 270° West 174 200 3,900 -1,020 Descending FlightAware ADS-B
11:14AM 51.4654 -0.1156 270° West 172 198 3,700 -960 Descending FlightAware ADS-B
11:14AM 51.4655 -0.1373 270° West 172 198 3,400 -960 Descending FlightAware ADS-B
11:15AM 51.4654 -0.1561 270° West 169 194 3,200 -960 Descending FlightAware ADS-B
11:15AM 51.4654 -0.1761 270° West 157 181 2,900 -780 Descending FlightAware ADS-B
11:15AM 51.4654 -0.1933 270° West 149 171 2,800 -600 Descending FlightAware ADS-B
11:16AM 51.4654 -0.2094 270° West 145 167 2,600 -960 Descending FlightAware ADS-B
11:16AM 51.4654 -0.2278 270° West 147 169 2,300 -840 Descending FlightAware ADS-B
11:16AM 51.4653 -0.2499 270° West 151 174 2,100 -3,240 Descending FlightAware ADS-B
11:16AM 51.4653 -0.2725 270° West 164 189 200 -900 Descending FlightAware UK
11:17AM 51.4650 -0.2920 270° West 153 176 1,500 1,620 Climbing FlightAware
11:17AM 51.4650 -0.3150 270° West 151 174 1,300 -720 Descending FlightAware
11:18AM 51.4650 -0.3430 270° West 141 162 900 -840 Descending FlightAware
11:18AM 51.4650 -0.3750 270° West 135 155 500 -480 Descending FlightAware
11:19AM 51.4650 -0.4200 270° West 135 155 300 -240 Descending FlightAware
11:19AM 51.4650 -0.4430 270° West 135 155 -720 Descending FlightAware
11:22AM 51.4775 -0.4614 318° Northwest  Level Estimated
11:23AM 51.4775 -0.4614 90° East  Level Estimated